This is the latest recevied weather packets stored in our database for station/object XE2MDH-15. If no packets are shown the sender has not sent any weather packets the latest 1 day(s).
| Time | Temp. | Humidity | Pressure | Rain* | Wind** | Luminosity | Snow |
|---|---|---|---|---|---|---|---|
| 1778094915 | 40° C | 14% | 808 hPa | - | - | - | - |
| 1778094015 | 39.44° C | 15% | 808.1 hPa | - | - | - | - |
| 1778089514 | 32.78° C | 16% | 808.6 hPa | - | - | - | - |
| 1778088347 | 31.67° C | 16% | 808.8 hPa | - | - | - | - |
| 1778087244 | 31.67° C | 17% | 809 hPa | - | - | - | - |
| 1778083965 | 28.33° C | 18% | 809.4 hPa | - | - | - | - |
| 1778080626 | 20.56° C | 17% | 809.6 hPa | - | - | - | - |
| 1778079611 | 15° C | 14% | 809.7 hPa | - | - | - | - |
| 1778077096 | 9.44° C | 12% | 809.7 hPa | - | - | - | - |
| 1778046770 | 19.44° C | 8% | 809.2 hPa | - | - | - | - |
| 1778044973 | 21.11° C | 8% | 809.2 hPa | - | - | - | - |
| 1778044073 | 21.11° C | 8% | 809.2 hPa | - | - | - | - |
| 1778043173 | 21.11° C | 8% | 809.2 hPa | - | - | - | - |
| 1778042273 | 21.67° C | 8% | 809 hPa | - | - | - | - |
| 1778041373 | 21.67° C | 8% | 808.8 hPa | - | - | - | - |
| 1778039572 | 22.22° C | 8% | 808.5 hPa | - | - | - | - |
| 1778038672 | 22.78° C | 8% | 808.3 hPa | - | - | - | - |
| 1778037772 | 22.78° C | 8% | 808.2 hPa | - | - | - | - |
| 1778036872 | 23.89° C | 8% | 808.1 hPa | - | - | - | - |
| 1778035972 | 24.44° C | 8% | 807.9 hPa | - | - | - | - |
| 1778035071 | 25° C | 8% | 807.6 hPa | - | - | - | - |
| 1778034171 | 25.56° C | 9% | 807.4 hPa | - | - | - | - |
| 1778033271 | 25.56° C | 9% | 807.2 hPa | - | - | - | - |
| 1778032371 | 26.67° C | 9% | 807 hPa | - | - | - | - |
| 1778031471 | 28.89° C | 9% | 806.8 hPa | - | - | - | - |
* Rain since midnight (hover to see other rain measurements)
** Current wind speed in m/s (hover to see current wind gust speed)